Time;durP1;ratioP1;P1;durP2;ratioP2;P2;SDS_P1;SDS_P2;PMS_P1;PMS_P2;Temp;Humidity;BMP_temperature;BMP_pressure;BME280_temperature;BME280_humidity;BME280_pressure;Samples;Min_cycle;Max_cycle;Signal;HPM_P1;HPM_P2
2023/05/12 00:00:56;;;;;;;;;2.25;1.50;;;;;20.65;43.32;101166.88;4998537;28;45210;-43
2023/05/12 00:03:22;;;;;;;;;3.00;1.50;;;;;20.64;43.52;101159.03;5003624;28;45245;-41
2023/05/12 00:05:48;;;;;;;;;2.25;2.25;;;;;20.64;43.11;101159.91;5006445;28;45249;-40
2023/05/12 00:08:13;;;;;;;;;2.75;2.00;;;;;20.65;43.17;101166.00;5000511;28;46429;-39
2023/05/12 00:10:39;;;;;;;;;2.00;2.00;;;;;20.63;43.16;101163.47;4997444;28;69911;-39
2023/05/12 00:13:04;;;;;;;;;1.75;1.75;;;;;20.66;43.26;101165.09;4998209;28;45399;-40
2023/05/12 00:15:30;;;;;;;;;2.00;1.00;;;;;20.65;43.04;101158.97;4998275;28;45586;-39
2023/05/12 00:17:55;;;;;;;;;2.50;1.00;;;;;20.64;43.55;101159.03;4998155;28;45366;-39
2023/05/12 00:20:20;;;;;;;;;1.75;1.75;;;;;20.63;43.33;101158.19;4997962;28;45406;-39
2023/05/12 00:22:46;;;;;;;;;2.00;2.00;;;;;20.64;43.34;101159.03;4998071;28;45436;-39
2023/05/12 00:25:11;;;;;;;;;5.50;2.00;;;;;20.63;43.27;101160.84;4997063;28;45639;-39
2023/05/12 00:27:36;;;;;;;;;1.75;1.00;;;;;20.62;43.14;101156.50;4998195;28;46436;-39
2023/05/12 00:30:02;;;;;;;;;2.00;2.00;;;;;20.64;43.45;101164.31;5021057;28;59893;-39
2023/05/12 00:32:27;;;;;;;;;2.00;2.00;;;;;20.63;42.92;101168.72;5008442;28;45274;-39
2023/05/12 00:34:53;;;;;;;;;2.00;1.00;;;;;20.64;43.33;101166.94;4997933;28;45580;-40
2023/05/12 00:37:19;;;;;;;;;2.00;2.00;;;;;20.63;43.06;101168.72;4997445;28;46441;-42
2023/05/12 00:39:44;;;;;;;;;2.00;2.00;;;;;20.64;43.24;101167.81;5002021;28;45627;-40
2023/05/12 00:42:11;;;;;;;;;2.00;2.00;;;;;20.64;43.24;101165.16;5004756;28;45172;-41
2023/05/12 00:44:36;;;;;;;;;1.25;1.25;;;;;20.61;42.98;101162.69;5003503;28;45666;-44
2023/05/12 00:47:03;;;;;;;;;1.25;1.00;;;;;20.64;43.21;101165.16;4997490;28;47362;-43
2023/05/12 00:49:29;;;;;;;;;3.25;1.75;;;;;20.63;43.28;101166.09;4997511;28;45257;-42
2023/05/12 00:51:55;;;;;;;;;2.75;2.75;;;;;20.63;43.00;101160.84;4997636;28;45414;-42
2023/05/12 00:54:20;;;;;;;;;2.50;2.50;;;;;20.63;43.11;101166.09;4997636;28;45450;-42
2023/05/12 00:56:46;;;;;;;;;2.00;2.00;;;;;20.63;42.94;101154.69;4997353;28;45359;-41
2023/05/12 00:59:11;;;;;;;;;4.00;2.00;;;;;20.63;43.27;101158.19;4996341;28;45417;-41
2023/05/12 01:01:37;;;;;;;;;2.75;2.25;;;;;20.62;42.81;101161.75;4997534;28;45564;-43
2023/05/12 01:04:03;;;;;;;;;1.00;1.00;;;;;20.62;42.92;101152.97;4998009;28;45317;-42
2023/05/12 01:06:37;;;;;;;;;1.75;1.75;;;;;20.61;43.19;101154.78;4998814;28;46939;-42
2023/05/12 01:09:02;;;;;;;;;1.00;1.00;;;;;20.62;43.15;101151.22;5016679;28;45806;-40
2023/05/12 01:11:28;;;;;;;;;2.00;2.00;;;;;20.61;43.09;101154.78;5011266;28;45436;-40
2023/05/12 01:13:53;;;;;;;;;2.50;2.00;;;;;20.61;43.33;101159.22;4998409;28;45244;-40
2023/05/12 01:16:23;;;;;;;;;2.00;2.00;;;;;20.62;43.24;101156.50;5001027;28;45389;-39
2023/05/12 01:18:52;;;;;;;;;2.25;2.00;;;;;20.62;43.31;101152.97;5004827;28;45384;-39
2023/05/12 01:21:18;;;;;;;;;4.00;2.00;;;;;20.62;42.79;101161.75;5001375;28;45439;-40
2023/05/12 01:23:52;;;;;;;;;2.50;2.00;;;;;20.62;42.96;101156.50;5001076;28;45602;-39
2023/05/12 01:26:18;;;;;;;;;6.75;2.50;;;;;20.61;42.79;101157.41;4998603;28;45585;-39
2023/05/12 01:28:45;;;;;;;;;2.00;2.00;;;;;20.61;43.05;101160.06;4998325;28;45365;-42
2023/05/12 01:31:12;;;;;;;;;3.00;2.00;;;;;20.62;42.93;101160.88;4998041;28;45312;-39
2023/05/12 01:33:38;;;;;;;;;2.00;2.00;;;;;20.59;43.03;101154.00;5002316;28;45210;-39
2023/05/12 01:36:04;;;;;;;;;2.75;1.25;;;;;20.60;43.22;101163.59;5001036;28;46196;-41
2023/05/12 01:38:30;;;;;;;;;2.00;1.00;;;;;20.62;42.73;101155.63;5000407;28;45575;-39
2023/05/12 01:40:55;;;;;;;;;2.00;1.25;;;;;20.60;43.15;101155.72;5000846;28;45460;-42
2023/05/12 01:43:20;;;;;;;;;1.00;1.00;;;;;20.61;43.02;101160.06;4997093;28;45614;-41
2023/05/12 01:45:45;;;;;;;;;1.25;1.25;;;;;20.60;42.98;101158.34;4996924;28;47100;-41
2023/05/12 01:48:11;;;;;;;;;2.00;2.00;;;;;20.60;42.85;101157.50;4995183;28;67639;-41
2023/05/12 01:50:36;;;;;;;;;1.75;1.75;;;;;20.58;42.74;101149.66;4996629;28;45367;-42
2023/05/12 01:53:01;;;;;;;;;1.00;1.00;;;;;20.59;42.79;101151.38;4996660;28;53293;-41
2023/05/12 01:55:27;;;;;;;;;1.00;1.00;;;;;20.60;42.98;101152.25;5003602;28;63635;-42
2023/05/12 01:57:52;;;;;;;;;1.00;1.00;;;;;20.61;42.95;101152.16;5003718;28;47604;-41
2023/05/12 02:00:17;;;;;;;;;0.00;0.00;;;;;20.60;42.91;101158.34;4996969;28;45491;-40
2023/05/12 02:02:43;;;;;;;;;1.25;1.25;;;;;20.60;42.76;101150.44;4996737;28;45629;-45
2023/05/12 02:05:08;;;;;;;;;2.25;1.75;;;;;20.60;43.00;101149.59;4996077;28;47237;-42
2023/05/12 02:07:33;;;;;;;;;2.50;1.25;;;;;20.59;42.81;101151.38;4995929;28;54597;-41
2023/05/12 02:09:59;;;;;;;;;1.50;1.00;;;;;20.60;42.83;101157.50;4996245;28;45412;-39
2023/05/12 02:12:24;;;;;;;;;2.00;2.00;;;;;20.60;42.83;101152.25;4996758;28;45305;-40
2023/05/12 02:14:49;;;;;;;;;1.75;1.00;;;;;20.58;43.02;101157.56;4996234;28;46121;-40
2023/05/12 02:17:16;;;;;;;;;2.25;2.00;;;;;20.59;42.96;101156.63;4996618;28;45234;-39
2023/05/12 02:19:41;;;;;;;;;1.00;1.00;;;;;20.59;42.81;101156.63;4996417;28;45321;-39
2023/05/12 02:22:06;;;;;;;;;1.25;1.00;;;;;20.58;42.59;101154.94;4996527;28;45342;-39
2023/05/12 02:24:32;;;;;;;;;1.00;1.00;;;;;20.58;42.56;101149.66;4996110;28;45970;-39
2023/05/12 02:26:57;;;;;;;;;2.00;1.00;;;;;20.59;42.79;101153.16;4996176;28;45398;-41
2023/05/12 02:29:22;;;;;;;;;3.00;1.00;;;;;20.58;42.67;101149.66;4995631;28;64969;-39
2023/05/12 02:31:47;;;;;;;;;1.00;1.00;;;;;20.55;42.74;101149.84;5000888;28;45581;-39
2023/05/12 02:34:13;;;;;;;;;1.67;1.67;;;;;20.58;42.73;101154.94;5013307;28;70066;-39
2023/05/12 02:36:38;;;;;;;;;2.00;2.00;;;;;20.58;42.97;101149.66;5015051;28;45341;-39
2023/05/12 02:39:04;;;;;;;;;1.00;1.00;;;;;20.58;42.68;101146.19;4996929;28;45433;-40
2023/05/12 02:41:29;;;;;;;;;1.00;1.00;;;;;20.58;42.88;101149.66;4996365;28;45344;-41
2023/05/12 02:43:55;;;;;;;;;1.25;1.25;;;;;20.59;42.87;101148.75;4995917;28;46296;-39
2023/05/12 02:46:20;;;;;;;;;1.00;1.00;;;;;20.58;42.86;101144.41;4996214;28;45445;-40
2023/05/12 02:48:45;;;;;;;;;1.00;1.00;;;;;20.55;42.42;101148.03;4995369;28;57543;-41
2023/05/12 02:51:11;;;;;;;;;1.00;1.00;;;;;20.58;42.67;101152.28;5011257;28;45492;-41
2023/05/12 02:53:36;;;;;;;;;3.00;1.25;;;;;20.58;42.39;101149.66;4995613;28;45308;-41
2023/05/12 02:56:01;;;;;;;;;3.00;1.75;;;;;20.58;42.90;101157.56;4995740;28;45424;-41
2023/05/12 02:58:27;;;;;;;;;2.50;1.00;;;;;20.58;42.49;101154.09;4996052;28;45331;-41
2023/05/12 03:00:52;;;;;;;;;2.00;1.00;;;;;20.58;42.56;101148.81;4998971;28;45273;-39
2023/05/12 03:03:17;;;;;;;;;1.00;1.00;;;;;20.57;42.84;101153.22;4999315;28;45652;-42
2023/05/12 03:05:43;;;;;;;;;1.00;1.00;;;;;20.57;42.86;101155.84;4999644;28;45397;-41
2023/05/12 03:08:08;;;;;;;;;1.00;1.00;;;;;20.57;42.43;101152.38;5005728;28;45407;-41
2023/05/12 03:10:34;;;;;;;;;0.00;0.00;;;;;20.58;42.66;101154.94;5006762;28;51329;-41
2023/05/12 03:12:59;;;;;;;;;1.00;1.00;;;;;20.57;42.55;101153.22;4999912;28;45435;-41
2023/05/12 03:15:25;;;;;;;;;1.25;1.25;;;;;20.55;42.63;101150.69;4998868;28;45351;-39
2023/05/12 03:17:50;;;;;;;;;0.00;0.00;;;;;20.54;42.56;101148.97;4999419;28;45277;-42
2023/05/12 03:20:16;;;;;;;;;1.00;1.00;;;;;20.57;42.87;101149.75;4999136;28;45565;-41
2023/05/12 03:22:44;;;;;;;;;1.00;1.00;;;;;20.55;42.84;101149.84;4997449;28;47123;-44
2023/05/12 03:25:13;;;;;;;;;3.00;1.25;;;;;20.57;42.47;101147.13;4998684;28;45320;-42
2023/05/12 03:27:39;;;;;;;;;1.75;1.00;;;;;20.57;42.62;101147.13;5000776;28;45973;-42
2023/05/12 03:30:04;;;;;;;;;2.00;1.00;;;;;20.54;42.98;101148.97;5001936;28;45185;-41
2023/05/12 03:32:30;;;;;;;;;1.00;1.00;;;;;20.55;42.72;101144.56;4999844;28;48516;-41
2023/05/12 03:34:55;;;;;;;;;1.00;1.00;;;;;20.55;42.87;101147.22;5006666;28;45250;-38
2023/05/12 03:37:21;;;;;;;;;1.25;0.00;;;;;20.57;42.46;101149.75;5015536;28;45206;-40
2023/05/12 03:39:47;;;;;;;;;1.25;1.25;;;;;20.56;42.42;101146.25;5009035;28;45175;-42
2023/05/12 03:42:13;;;;;;;;;2.00;1.00;;;;;20.54;42.54;101145.50;5005253;28;45347;-40
2023/05/12 03:44:38;;;;;;;;;1.50;0.00;;;;;20.54;42.79;101145.50;5002743;28;45405;-41
2023/05/12 03:47:03;;;;;;;;;1.00;1.00;;;;;20.54;42.35;101148.97;5004499;28;55537;-41
2023/05/12 03:49:29;;;;;;;;;2.00;1.00;;;;;20.54;42.45;101145.50;4999451;28;45229;-42
2023/05/12 03:51:54;;;;;;;;;1.67;1.67;;;;;20.54;42.45;101148.13;4998052;28;65085;-41
2023/05/12 03:54:19;;;;;;;;;1.00;1.00;;;;;20.52;42.63;101148.19;4997686;28;55421;-40
2023/05/12 03:56:45;;;;;;;;;0.00;0.00;;;;;20.53;42.75;101146.44;4998510;28;45290;-39
2023/05/12 03:59:10;;;;;;;;;0.00;0.00;;;;;20.53;42.91;101144.63;4998071;28;48509;-41
2023/05/12 04:01:36;;;;;;;;;3.00;0.75;;;;;20.53;42.66;101155.16;4998998;28;46354;-43
2023/05/12 04:04:01;;;;;;;;;1.00;1.00;;;;;20.52;42.78;101150.81;4998198;28;45344;-41
2023/05/12 04:06:26;;;;;;;;;1.00;1.00;;;;;20.52;42.40;101150.00;4998338;28;45541;-39
2023/05/12 04:08:52;;;;;;;;;1.00;1.00;;;;;20.53;42.48;101149.06;4998689;28;45317;-41
2023/05/12 04:11:17;;;;;;;;;2.75;1.00;;;;;20.53;42.72;101149.06;4997506;28;46023;-40
2023/05/12 04:13:43;;;;;;;;;1.25;1.00;;;;;20.53;42.57;101155.16;4998164;28;45369;-43
2023/05/12 04:16:08;;;;;;;;;1.00;1.00;;;;;20.53;42.70;101151.69;4998335;28;45408;-39
2023/05/12 04:18:35;;;;;;;;;2.50;1.00;;;;;20.51;42.49;101153.53;4998656;28;45566;-39
2023/05/12 04:21:01;;;;;;;;;1.50;0.75;;;;;20.52;42.44;101150.81;5000187;28;46215;-41
2023/05/12 04:23:26;;;;;;;;;1.75;1.75;;;;;20.52;42.87;101152.63;5004754;28;45218;-39
2023/05/12 04:25:52;;;;;;;;;1.00;1.00;;;;;20.52;42.34;101152.63;5000645;28;45313;-41
2023/05/12 04:28:17;;;;;;;;;1.00;1.00;;;;;20.53;42.58;101149.06;4999275;28;46102;-42
2023/05/12 04:30:42;;;;;;;;;1.00;1.00;;;;;20.51;42.52;101148.28;4998461;28;46697;-41
2023/05/12 04:33:08;;;;;;;;;1.00;1.00;;;;;20.53;42.56;101151.69;5002889;28;45411;-41
2023/05/12 04:35:34;;;;;;;;;1.00;1.00;;;;;20.52;42.78;101156.09;4998627;28;45253;-40
2023/05/12 04:38:02;;;;;;;;;1.00;1.00;;;;;20.52;42.47;101157.88;5001010;28;45435;-38
2023/05/12 04:40:27;;;;;;;;;1.25;1.00;;;;;20.49;42.66;101145.72;5007138;28;46388;-42
2023/05/12 04:42:53;;;;;;;;;1.50;0.00;;;;;20.52;42.59;101157.88;5010389;28;45431;-48
2023/05/12 04:45:18;;;;;;;;;0.25;0.25;;;;;20.51;42.47;101158.81;5014424;28;45070;-44
2023/05/12 04:47:44;;;;;;;;;2.00;0.00;;;;;20.52;42.34;101163.16;5011629;28;45388;-44
2023/05/12 04:50:10;;;;;;;;;2.00;0.25;;;;;20.51;42.50;101164.91;5009648;28;45344;-41
2023/05/12 04:52:36;;;;;;;;;1.50;1.25;;;;;20.52;42.40;101160.50;5011022;28;45365;-41
2023/05/12 04:55:01;;;;;;;;;1.00;1.00;;;;;20.52;42.46;101165.78;5008215;28;45273;-40
2023/05/12 04:57:26;;;;;;;;;3.25;1.00;;;;;20.52;42.20;101165.78;5007332;28;45246;-43
2023/05/12 04:59:52;;;;;;;;;1.00;1.00;;;;;20.51;42.40;101169.34;5010184;28;45225;-41
2023/05/12 05:02:17;;;;;;;;;0.25;0.25;;;;;20.51;42.50;101169.34;4984714;28;45201;-40
2023/05/12 05:04:43;;;;;;;;;1.25;1.25;;;;;20.52;42.82;101171.06;4998632;28;45286;-39
2023/05/12 05:07:08;;;;;;;;;1.25;1.25;;;;;20.51;42.33;101175.44;4998049;28;45522;-41
2023/05/12 05:09:34;;;;;;;;;2.00;1.00;;;;;20.51;42.53;101183.34;4999763;28;45339;-38
2023/05/12 05:11:59;;;;;;;;;2.00;2.00;;;;;20.51;42.64;101179.88;4998525;28;45399;-40
2023/05/12 05:14:25;;;;;;;;;1.00;1.00;;;;;20.51;42.38;101178.09;4997982;28;45435;-39
2023/05/12 05:16:50;;;;;;;;;0.75;0.75;;;;;20.51;42.44;101183.34;4999170;28;45524;-39
2023/05/12 05:19:15;;;;;;;;;0.50;0.00;;;;;20.52;42.38;101181.59;4998276;28;46381;-38
2023/05/12 05:21:41;;;;;;;;;1.00;1.00;;;;;20.52;42.59;101184.22;4996054;28;45931;-39
2023/05/12 05:24:07;;;;;;;;;1.50;1.50;;;;;20.52;42.78;101186.84;4998141;28;47186;-40
2023/05/12 05:26:33;;;;;;;;;2.00;1.00;;;;;20.52;42.20;101189.47;4996153;28;45489;-41
2023/05/12 05:28:58;;;;;;;;;1.00;1.00;;;;;20.51;42.54;101182.50;4998108;28;45452;-40
2023/05/12 05:31:24;;;;;;;;;0.50;0.50;;;;;20.52;42.22;101190.31;4998271;28;45365;-41
2023/05/12 05:33:49;;;;;;;;;1.25;1.00;;;;;20.52;42.22;101187.69;5006523;28;45465;-41
2023/05/12 05:36:15;;;;;;;;;0.00;0.00;;;;;20.52;42.06;101186.84;5004596;28;45329;-41
2023/05/12 05:38:40;;;;;;;;;0.50;0.50;;;;;20.49;42.54;101181.72;4997371;28;46223;-41
2023/05/12 05:41:06;;;;;;;;;0.50;0.50;;;;;20.53;42.12;101193.81;4996569;28;45304;-40
2023/05/12 05:43:31;;;;;;;;;1.00;1.00;;;;;20.52;42.24;101192.13;4997088;28;45380;-41
2023/05/12 05:45:57;;;;;;;;;1.00;1.00;;;;;20.53;42.05;101194.66;4996807;28;45269;-41
2023/05/12 05:48:23;;;;;;;;;2.00;0.75;;;;;20.53;42.18;101188.56;4996355;28;46324;-40
2023/05/12 05:50:50;;;;;;;;;0.00;0.00;;;;;20.52;41.97;101192.13;4996435;28;45566;-41
2023/05/12 05:53:19;;;;;;;;;1.00;1.00;;;;;20.52;42.09;101192.13;4996323;28;45385;-41
2023/05/12 05:55:47;;;;;;;;;0.25;0.25;;;;;20.53;42.31;101193.81;4999284;28;45587;-41
2023/05/12 05:58:14;;;;;;;;;1.00;1.00;;;;;20.53;41.70;101191.19;4996401;28;46774;-40
2023/05/12 06:00:39;;;;;;;;;1.00;0.50;;;;;20.51;42.16;101191.25;4996874;28;45706;-45
2023/05/12 06:03:05;;;;;;;;;1.00;1.00;;;;;20.53;41.71;101197.28;5007575;28;45249;-42
2023/05/12 06:05:30;;;;;;;;;1.00;1.00;;;;;20.53;42.08;101196.47;5016905;28;45502;-39
2023/05/12 06:07:55;;;;;;;;;2.50;1.00;;;;;20.52;42.05;101195.59;5008070;28;45517;-40
2023/05/12 06:10:21;;;;;;;;;2.00;0.00;;;;;20.53;41.61;101194.66;5004154;28;49721;-39
2023/05/12 06:12:46;;;;;;;;;1.00;1.00;;;;;20.54;41.79;101198.16;5002123;28;45381;-39
2023/05/12 06:15:11;;;;;;;;;0.25;0.25;;;;;20.53;42.10;101194.66;4999754;28;45686;-39
2023/05/12 06:17:37;;;;;;;;;1.00;1.00;;;;;20.54;41.65;101195.53;4996270;28;46506;-38
2023/05/12 06:20:04;;;;;;;;;1.00;1.00;;;;;20.53;42.23;101193.81;4996632;28;45430;-38
2023/05/12 06:22:29;;;;;;;;;1.00;1.00;;;;;20.53;42.02;101191.19;4995018;28;45398;-40
2023/05/12 06:24:55;;;;;;;;;1.00;1.00;;;;;20.54;41.85;101192.91;4996596;28;45745;-38
2023/05/12 06:27:20;;;;;;;;;2.00;1.00;;;;;20.54;41.99;101195.53;4994924;28;46550;-38
2023/05/12 06:29:45;;;;;;;;;1.75;1.00;;;;;20.54;42.01;101206.06;4996018;28;45323;-40
2023/05/12 06:32:11;;;;;;;;;1.00;1.00;;;;;20.54;42.11;101195.53;4995618;28;57465;-39
2023/05/12 06:34:36;;;;;;;;;1.50;0.00;;;;;20.54;42.31;101195.53;4998626;28;45644;-39
2023/05/12 06:37:01;;;;;;;;;1.00;1.00;;;;;20.54;41.58;101195.53;4999299;28;59331;-39
2023/05/12 06:39:26;;;;;;;;;1.00;1.00;;;;;20.55;41.89;101202.50;4999383;28;59390;-39
2023/05/12 06:41:52;;;;;;;;;2.25;1.00;;;;;20.56;41.85;101206.81;5006927;28;46303;-39
2023/05/12 06:44:17;;;;;;;;;0.50;0.50;;;;;20.55;41.85;101202.50;5016052;28;45324;-39
2023/05/12 06:46:42;;;;;;;;;1.00;1.00;;;;;20.57;42.04;101211.16;5021412;28;59671;-40
2023/05/12 06:49:08;;;;;;;;;1.00;1.00;;;;;20.58;42.16;101210.22;5003166;28;51415;-41
2023/05/12 06:51:33;;;;;;;;;1.00;1.00;;;;;20.59;41.81;101206.66;5002320;28;45388;-40
2023/05/12 06:53:59;;;;;;;;;1.00;1.00;;;;;20.59;42.08;101214.56;5000629;28;45522;-39
2023/05/12 06:56:24;;;;;;;;;1.00;1.00;;;;;20.54;42.00;101199.00;4999984;28;45592;-39
2023/05/12 06:58:51;;;;;;;;;0.00;0.00;;;;;20.61;41.57;101215.34;5004318;28;67554;-41
2023/05/12 07:01:16;;;;;;;;;1.00;1.00;;;;;20.60;42.06;101210.16;5014899;28;45301;-39
2023/05/12 07:03:41;;;;;;;;;1.00;1.00;;;;;20.60;42.15;101200.47;5022901;28;44815;-39
2023/05/12 07:06:07;;;;;;;;;2.00;1.00;;;;;20.61;42.19;101198.72;5022560;28;45468;-40
2023/05/12 07:08:32;;;;;;;;;1.00;1.00;;;;;20.61;42.02;101202.19;5011232;28;45378;-40
2023/05/12 07:11:00;;;;;;;;;1.25;1.25;;;;;20.64;41.89;101206.44;5009962;28;45269;-39
2023/05/12 07:13:26;;;;;;;;;1.00;1.00;;;;;20.65;42.02;101205.50;5002504;28;45178;-40
2023/05/12 07:15:51;;;;;;;;;2.00;0.00;;;;;20.64;41.80;101199.41;5005340;28;45662;-41
2023/05/12 07:18:16;;;;;;;;;1.00;1.00;;;;;20.67;42.08;101203.66;5003085;28;63688;-40
2023/05/12 07:20:42;;;;;;;;;1.50;0.75;;;;;20.69;41.70;101207.06;5002447;28;45324;-41
2023/05/12 07:23:08;;;;;;;;;1.00;1.00;;;;;20.68;41.82;101206.22;5006906;28;45266;-40
2023/05/12 07:25:33;;;;;;;;;1.00;1.00;;;;;20.69;42.07;101207.06;5007066;28;45595;-39
2023/05/12 07:27:59;;;;;;;;;1.00;1.00;;;;;20.69;42.13;101202.66;5003706;28;45278;-39
2023/05/12 07:30:24;;;;;;;;;1.00;1.00;;;;;20.70;41.96;101199.09;4998953;28;53045;-39
2023/05/12 07:32:49;;;;;;;;;1.00;1.00;;;;;20.70;41.96;101201.72;4999483;28;45480;-39
2023/05/12 07:35:15;;;;;;;;;0.25;0.25;;;;;20.72;41.91;101192.88;5000318;28;45465;-40
2023/05/12 07:37:40;;;;;;;;;2.67;1.00;;;;;20.72;41.92;101199.03;4998131;28;64058;-40
2023/05/12 07:40:06;;;;;;;;;4.00;1.00;;;;;20.73;42.07;101191.97;4999386;28;45511;-39
2023/05/12 07:42:31;;;;;;;;;1.00;1.00;;;;;20.73;41.81;101189.34;4998923;28;45285;-39
2023/05/12 07:44:57;;;;;;;;;1.00;1.00;;;;;20.75;42.05;101192.78;4997787;28;45449;-41
2023/05/12 07:47:22;;;;;;;;;0.00;0.00;;;;;20.73;41.78;101190.16;4998691;28;45317;-40
2023/05/12 07:49:48;;;;;;;;;1.00;1.00;;;;;20.75;41.86;101198.88;4998710;28;45372;-40
2023/05/12 07:52:13;;;;;;;;;1.00;1.00;;;;;20.76;41.62;101194.50;4998728;28;45387;-41
2023/05/12 07:54:38;;;;;;;;;1.75;1.00;;;;;20.76;41.63;101191.84;4998831;28;46482;-39
2023/05/12 07:57:04;;;;;;;;;0.75;0.75;;;;;20.77;41.90;101190.91;5000394;28;45382;-40
2023/05/12 07:59:29;;;;;;;;;3.00;1.00;;;;;20.78;41.75;101193.47;5005843;28;45535;-40
2023/05/12 08:01:55;;;;;;;;;1.00;1.00;;;;;20.78;41.85;101190.84;5005006;28;45365;-42
2023/05/12 08:04:20;;;;;;;;;2.25;1.00;;;;;20.79;41.78;101199.56;4998855;28;45448;-40
2023/05/12 08:06:45;;;;;;;;;2.75;1.00;;;;;20.79;41.62;101189.91;4999093;28;45255;-41
2023/05/12 08:09:10;;;;;;;;;1.00;1.00;;;;;20.79;41.72;101194.31;4998806;28;53068;-40
2023/05/12 08:11:36;;;;;;;;;1.00;1.00;;;;;20.80;41.49;101190.75;4999723;28;45621;-39
2023/05/12 08:14:01;;;;;;;;;2.25;0.75;;;;;20.80;41.58;101193.38;5006852;28;46452;-40
2023/05/12 08:16:26;;;;;;;;;1.25;1.25;;;;;20.80;41.64;101190.75;5013205;28;45254;-39
2023/05/12 08:18:52;;;;;;;;;1.00;1.00;;;;;20.80;41.70;101199.53;5011914;28;45658;-40
2023/05/12 08:21:17;;;;;;;;;1.33;1.00;;;;;20.79;41.78;101189.03;5013757;28;50576;-39
2023/05/12 08:23:43;;;;;;;;;1.25;1.00;;;;;20.81;42.06;101192.44;4998968;28;58380;-40
2023/05/12 08:26:08;;;;;;;;;1.00;1.00;;;;;20.79;41.78;101194.31;4998928;28;45320;-40
2023/05/12 08:28:34;;;;;;;;;2.00;0.75;;;;;20.80;41.77;101199.53;5014306;28;45235;-42
2023/05/12 08:30:59;;;;;;;;;3.00;1.50;;;;;20.79;41.83;101204.84;4998590;28;45466;-40
2023/05/12 08:33:25;;;;;;;;;2.00;1.00;;;;;20.80;41.78;101207.41;5002374;28;45361;-41
